sensor_id;sensor_type;location;lat;lon;timestamp;P1;durP1;ratioP1;P2;durP2;ratioP2
58581;SDS011;44361;51.476;5.700;2022-12-19T00:01:03;72.35;;;28.15;;
58581;SDS011;44361;51.476;5.700;2022-12-19T00:03:32;70.30;;;29.20;;
58581;SDS011;44361;51.476;5.700;2022-12-19T00:06:02;70.60;;;29.05;;
58581;SDS011;44361;51.476;5.700;2022-12-19T00:08:29;72.75;;;28.25;;
58581;SDS011;44361;51.476;5.700;2022-12-19T00:10:59;73.85;;;29.85;;
58581;SDS011;44361;51.476;5.700;2022-12-19T00:13:28;69.95;;;29.65;;
58581;SDS011;44361;51.476;5.700;2022-12-19T00:15:54;61.92;;;28.23;;
58581;SDS011;44361;51.476;5.700;2022-12-19T00:18:19;70.53;;;29.10;;
58581;SDS011;44361;51.476;5.700;2022-12-19T00:20:55;75.70;;;29.90;;
58581;SDS011;44361;51.476;5.700;2022-12-19T00:23:26;70.82;;;28.52;;
58581;SDS011;44361;51.476;5.700;2022-12-19T00:25:53;74.95;;;28.77;;
58581;SDS011;44361;51.476;5.700;2022-12-19T00:28:18;77.78;;;31.05;;
58581;SDS011;44361;51.476;5.700;2022-12-19T00:30:44;84.25;;;29.95;;
58581;SDS011;44361;51.476;5.700;2022-12-19T00:33:10;69.63;;;28.17;;
58581;SDS011;44361;51.476;5.700;2022-12-19T00:35:35;86.53;;;32.30;;
58581;SDS011;44361;51.476;5.700;2022-12-19T00:38:02;75.28;;;31.80;;
58581;SDS011;44361;51.476;5.700;2022-12-19T00:40:28;74.03;;;29.10;;
58581;SDS011;44361;51.476;5.700;2022-12-19T00:42:53;82.22;;;31.35;;
58581;SDS011;44361;51.476;5.700;2022-12-19T00:45:19;77.28;;;30.98;;
58581;SDS011;44361;51.476;5.700;2022-12-19T00:47:45;78.80;;;29.30;;
58581;SDS011;44361;51.476;5.700;2022-12-19T00:50:11;82.78;;;32.10;;
58581;SDS011;44361;51.476;5.700;2022-12-19T00:52:36;77.63;;;30.15;;
58581;SDS011;44361;51.476;5.700;2022-12-19T00:55:02;72.15;;;29.35;;
58581;SDS011;44361;51.476;5.700;2022-12-19T00:57:28;73.03;;;29.08;;
58581;SDS011;44361;51.476;5.700;2022-12-19T00:59:54;84.20;;;31.77;;
58581;SDS011;44361;51.476;5.700;2022-12-19T01:02:25;90.57;;;30.67;;
58581;SDS011;44361;51.476;5.700;2022-12-19T01:04:50;73.07;;;29.95;;
58581;SDS011;44361;51.476;5.700;2022-12-19T01:07:19;81.20;;;30.88;;
58581;SDS011;44361;51.476;5.700;2022-12-19T01:09:44;80.07;;;29.48;;
58581;SDS011;44361;51.476;5.700;2022-12-19T01:12:11;82.53;;;30.10;;
58581;SDS011;44361;51.476;5.700;2022-12-19T01:14:55;85.77;;;32.33;;
58581;SDS011;44361;51.476;5.700;2022-12-19T01:17:21;75.88;;;27.73;;
58581;SDS011;44361;51.476;5.700;2022-12-19T01:19:49;81.32;;;29.55;;
58581;SDS011;44361;51.476;5.700;2022-12-19T01:22:17;83.30;;;30.17;;
58581;SDS011;44361;51.476;5.700;2022-12-19T01:24:43;79.25;;;31.50;;
58581;SDS011;44361;51.476;5.700;2022-12-19T01:27:09;83.82;;;30.13;;
58581;SDS011;44361;51.476;5.700;2022-12-19T01:29:35;81.20;;;31.08;;
58581;SDS011;44361;51.476;5.700;2022-12-19T01:32:01;73.28;;;29.63;;
58581;SDS011;44361;51.476;5.700;2022-12-19T01:34:27;85.13;;;30.90;;
58581;SDS011;44361;51.476;5.700;2022-12-19T01:36:53;84.10;;;31.05;;
58581;SDS011;44361;51.476;5.700;2022-12-19T01:39:18;81.47;;;31.77;;
58581;SDS011;44361;51.476;5.700;2022-12-19T01:41:44;79.43;;;31.17;;
58581;SDS011;44361;51.476;5.700;2022-12-19T01:44:10;78.38;;;30.38;;
58581;SDS011;44361;51.476;5.700;2022-12-19T01:46:40;74.68;;;29.77;;
58581;SDS011;44361;51.476;5.700;2022-12-19T01:49:11;80.55;;;29.25;;
58581;SDS011;44361;51.476;5.700;2022-12-19T01:51:50;74.95;;;29.17;;
58581;SDS011;44361;51.476;5.700;2022-12-19T01:54:20;80.10;;;30.33;;
58581;SDS011;44361;51.476;5.700;2022-12-19T01:56:49;78.20;;;30.60;;
58581;SDS011;44361;51.476;5.700;2022-12-19T01:59:21;72.85;;;29.80;;
58581;SDS011;44361;51.476;5.700;2022-12-19T02:01:54;83.55;;;30.17;;
58581;SDS011;44361;51.476;5.700;2022-12-19T02:04:26;83.85;;;29.48;;
58581;SDS011;44361;51.476;5.700;2022-12-19T02:06:53;80.40;;;31.08;;
58581;SDS011;44361;51.476;5.700;2022-12-19T02:09:20;71.18;;;29.65;;
58581;SDS011;44361;51.476;5.700;2022-12-19T02:11:46;77.03;;;29.30;;
58581;SDS011;44361;51.476;5.700;2022-12-19T02:14:13;74.13;;;30.08;;
58581;SDS011;44361;51.476;5.700;2022-12-19T02:16:40;68.38;;;28.65;;
58581;SDS011;44361;51.476;5.700;2022-12-19T02:22:06;68.38;;;27.38;;
58581;SDS011;44361;51.476;5.700;2022-12-19T02:36:23;69.50;;;25.98;;
58581;SDS011;44361;51.476;5.700;2022-12-19T02:39:02;67.18;;;26.92;;
58581;SDS011;44361;51.476;5.700;2022-12-19T02:41:34;75.88;;;28.00;;
58581;SDS011;44361;51.476;5.700;2022-12-19T02:44:17;71.55;;;26.80;;
58581;SDS011;44361;51.476;5.700;2022-12-19T02:46:47;69.95;;;28.38;;
58581;SDS011;44361;51.476;5.700;2022-12-19T02:49:14;74.10;;;26.85;;
58581;SDS011;44361;51.476;5.700;2022-12-19T02:51:43;62.08;;;25.15;;
58581;SDS011;44361;51.476;5.700;2022-12-19T02:54:11;65.65;;;26.10;;
58581;SDS011;44361;51.476;5.700;2022-12-19T03:02:28;61.13;;;26.08;;
58581;SDS011;44361;51.476;5.700;2022-12-19T03:10:42;70.55;;;26.38;;
58581;SDS011;44361;51.476;5.700;2022-12-19T03:13:18;62.55;;;24.52;;
58581;SDS011;44361;51.476;5.700;2022-12-19T03:15:50;69.63;;;25.55;;
58581;SDS011;44361;51.476;5.700;2022-12-19T03:18:16;72.07;;;26.00;;
58581;SDS011;44361;51.476;5.700;2022-12-19T03:23:23;72.28;;;25.33;;
58581;SDS011;44361;51.476;5.700;2022-12-19T03:25:50;63.90;;;25.05;;
58581;SDS011;44361;51.476;5.700;2022-12-19T03:28:20;69.57;;;26.77;;
58581;SDS011;44361;51.476;5.700;2022-12-19T03:30:57;62.22;;;26.00;;
58581;SDS011;44361;51.476;5.700;2022-12-19T03:33:25;63.97;;;23.95;;
58581;SDS011;44361;51.476;5.700;2022-12-19T03:35:54;62.20;;;24.23;;
58581;SDS011;44361;51.476;5.700;2022-12-19T03:38:23;65.20;;;25.23;;
58581;SDS011;44361;51.476;5.700;2022-12-19T03:40:51;68.38;;;24.23;;
58581;SDS011;44361;51.476;5.700;2022-12-19T03:43:18;58.08;;;24.20;;
58581;SDS011;44361;51.476;5.700;2022-12-19T03:48:29;61.67;;;24.13;;
58581;SDS011;44361;51.476;5.700;2022-12-19T03:59:11;62.13;;;23.70;;
58581;SDS011;44361;51.476;5.700;2022-12-19T04:01:43;56.25;;;23.00;;
58581;SDS011;44361;51.476;5.700;2022-12-19T04:04:10;60.03;;;23.30;;
58581;SDS011;44361;51.476;5.700;2022-12-19T04:06:37;64.55;;;24.95;;
58581;SDS011;44361;51.476;5.700;2022-12-19T04:09:06;58.60;;;23.85;;
58581;SDS011;44361;51.476;5.700;2022-12-19T04:11:39;57.25;;;23.63;;
58581;SDS011;44361;51.476;5.700;2022-12-19T04:14:17;54.70;;;21.83;;
58581;SDS011;44361;51.476;5.700;2022-12-19T04:20:04;58.60;;;22.40;;
58581;SDS011;44361;51.476;5.700;2022-12-19T04:25:13;50.33;;;21.60;;
58581;SDS011;44361;51.476;5.700;2022-12-19T04:27:42;52.47;;;21.40;;
58581;SDS011;44361;51.476;5.700;2022-12-19T04:30:15;53.97;;;21.67;;
58581;SDS011;44361;51.476;5.700;2022-12-19T04:32:42;46.65;;;20.77;;
58581;SDS011;44361;51.476;5.700;2022-12-19T04:35:11;49.50;;;20.95;;
58581;SDS011;44361;51.476;5.700;2022-12-19T04:37:53;47.20;;;20.38;;
58581;SDS011;44361;51.476;5.700;2022-12-19T04:40:19;51.35;;;20.55;;
58581;SDS011;44361;51.476;5.700;2022-12-19T04:42:45;43.97;;;19.30;;
58581;SDS011;44361;51.476;5.700;2022-12-19T04:45:10;46.13;;;19.10;;
58581;SDS011;44361;51.476;5.700;2022-12-19T04:47:36;45.67;;;19.40;;
58581;SDS011;44361;51.476;5.700;2022-12-19T04:50:06;46.75;;;17.60;;
58581;SDS011;44361;51.476;5.700;2022-12-19T04:52:33;42.70;;;18.33;;
58581;SDS011;44361;51.476;5.700;2022-12-19T04:54:59;42.67;;;15.70;;
58581;SDS011;44361;51.476;5.700;2022-12-19T04:57:27;40.35;;;16.63;;
58581;SDS011;44361;51.476;5.700;2022-12-19T04:59:54;37.78;;;16.52;;
58581;SDS011;44361;51.476;5.700;2022-12-19T05:02:19;31.65;;;15.55;;
58581;SDS011;44361;51.476;5.700;2022-12-19T05:04:45;38.15;;;15.68;;
58581;SDS011;44361;51.476;5.700;2022-12-19T05:07:12;31.95;;;14.60;;
58581;SDS011;44361;51.476;5.700;2022-12-19T05:09:41;35.13;;;16.17;;
58581;SDS011;44361;51.476;5.700;2022-12-19T05:12:07;37.53;;;15.85;;
58581;SDS011;44361;51.476;5.700;2022-12-19T05:14:34;39.15;;;15.88;;
58581;SDS011;44361;51.476;5.700;2022-12-19T05:16:59;33.35;;;15.32;;
58581;SDS011;44361;51.476;5.700;2022-12-19T05:19:26;39.88;;;16.60;;
58581;SDS011;44361;51.476;5.700;2022-12-19T05:21:53;31.13;;;14.90;;
58581;SDS011;44361;51.476;5.700;2022-12-19T05:24:19;32.60;;;14.40;;
58581;SDS011;44361;51.476;5.700;2022-12-19T05:26:46;35.05;;;15.25;;
58581;SDS011;44361;51.476;5.700;2022-12-19T05:29:12;31.88;;;13.75;;
58581;SDS011;44361;51.476;5.700;2022-12-19T05:31:39;30.90;;;14.25;;
58581;SDS011;44361;51.476;5.700;2022-12-19T05:34:04;36.28;;;14.20;;
58581;SDS011;44361;51.476;5.700;2022-12-19T05:36:30;31.55;;;14.75;;
58581;SDS011;44361;51.476;5.700;2022-12-19T05:38:57;30.40;;;13.95;;
58581;SDS011;44361;51.476;5.700;2022-12-19T05:41:24;31.23;;;13.65;;
58581;SDS011;44361;51.476;5.700;2022-12-19T05:43:51;32.45;;;14.27;;
58581;SDS011;44361;51.476;5.700;2022-12-19T05:46:19;30.50;;;12.93;;
58581;SDS011;44361;51.476;5.700;2022-12-19T05:48:45;27.85;;;12.93;;
58581;SDS011;44361;51.476;5.700;2022-12-19T05:51:11;30.38;;;12.85;;
58581;SDS011;44361;51.476;5.700;2022-12-19T05:53:37;27.88;;;12.98;;
58581;SDS011;44361;51.476;5.700;2022-12-19T05:56:05;25.98;;;12.05;;
58581;SDS011;44361;51.476;5.700;2022-12-19T05:58:31;34.15;;;12.57;;
58581;SDS011;44361;51.476;5.700;2022-12-19T06:01:04;25.42;;;11.52;;
58581;SDS011;44361;51.476;5.700;2022-12-19T06:03:39;25.02;;;11.60;;
58581;SDS011;44361;51.476;5.700;2022-12-19T06:06:06;26.85;;;11.25;;
58581;SDS011;44361;51.476;5.700;2022-12-19T06:08:37;25.38;;;12.15;;
58581;SDS011;44361;51.476;5.700;2022-12-19T06:11:03;23.83;;;11.73;;
58581;SDS011;44361;51.476;5.700;2022-12-19T06:13:31;22.50;;;10.93;;
58581;SDS011;44361;51.476;5.700;2022-12-19T06:16:00;20.52;;;11.52;;
58581;SDS011;44361;51.476;5.700;2022-12-19T06:18:43;21.80;;;10.18;;
58581;SDS011;44361;51.476;5.700;2022-12-19T06:21:17;23.50;;;10.70;;
58581;SDS011;44361;51.476;5.700;2022-12-19T06:23:44;26.02;;;12.05;;
58581;SDS011;44361;51.476;5.700;2022-12-19T06:26:13;23.20;;;10.90;;
58581;SDS011;44361;51.476;5.700;2022-12-19T06:28:40;23.30;;;11.55;;
58581;SDS011;44361;51.476;5.700;2022-12-19T06:31:06;21.40;;;10.73;;
58581;SDS011;44361;51.476;5.700;2022-12-19T06:33:33;20.77;;;10.25;;
58581;SDS011;44361;51.476;5.700;2022-12-19T06:36:00;25.05;;;11.73;;
58581;SDS011;44361;51.476;5.700;2022-12-19T06:38:27;24.25;;;11.40;;
58581;SDS011;44361;51.476;5.700;2022-12-19T06:40:53;23.80;;;10.95;;
58581;SDS011;44361;51.476;5.700;2022-12-19T06:43:39;27.67;;;10.98;;
58581;SDS011;44361;51.476;5.700;2022-12-19T06:46:05;23.02;;;10.70;;
58581;SDS011;44361;51.476;5.700;2022-12-19T06:48:31;23.50;;;10.15;;
58581;SDS011;44361;51.476;5.700;2022-12-19T06:50:57;21.45;;;10.60;;
58581;SDS011;44361;51.476;5.700;2022-12-19T06:53:24;21.27;;;10.88;;
58581;SDS011;44361;51.476;5.700;2022-12-19T06:55:51;18.90;;;10.48;;
58581;SDS011;44361;51.476;5.700;2022-12-19T06:58:19;19.33;;;10.63;;
58581;SDS011;44361;51.476;5.700;2022-12-19T07:00:44;19.83;;;9.85;;
58581;SDS011;44361;51.476;5.700;2022-12-19T07:03:12;21.33;;;10.02;;
58581;SDS011;44361;51.476;5.700;2022-12-19T07:05:40;21.70;;;9.93;;
58581;SDS011;44361;51.476;5.700;2022-12-19T07:08:07;17.40;;;9.43;;
58581;SDS011;44361;51.476;5.700;2022-12-19T07:10:33;20.67;;;10.30;;
58581;SDS011;44361;51.476;5.700;2022-12-19T07:12:58;21.38;;;9.75;;
58581;SDS011;44361;51.476;5.700;2022-12-19T07:15:28;19.27;;;10.02;;
58581;SDS011;44361;51.476;5.700;2022-12-19T07:17:56;22.25;;;10.52;;
58581;SDS011;44361;51.476;5.700;2022-12-19T07:20:25;20.77;;;11.13;;
58581;SDS011;44361;51.476;5.700;2022-12-19T07:22:52;18.02;;;9.45;;
58581;SDS011;44361;51.476;5.700;2022-12-19T07:25:21;18.83;;;9.73;;
58581;SDS011;44361;51.476;5.700;2022-12-19T07:27:46;17.63;;;9.90;;
58581;SDS011;44361;51.476;5.700;2022-12-19T07:30:12;18.17;;;9.52;;
58581;SDS011;44361;51.476;5.700;2022-12-19T07:32:38;17.50;;;9.85;;
58581;SDS011;44361;51.476;5.700;2022-12-19T07:35:07;18.08;;;10.13;;
58581;SDS011;44361;51.476;5.700;2022-12-19T07:37:34;17.98;;;9.20;;
58581;SDS011;44361;51.476;5.700;2022-12-19T07:39:59;19.15;;;9.68;;
58581;SDS011;44361;51.476;5.700;2022-12-19T07:42:25;18.83;;;9.90;;
58581;SDS011;44361;51.476;5.700;2022-12-19T07:44:51;18.33;;;9.00;;
58581;SDS011;44361;51.476;5.700;2022-12-19T07:47:16;18.42;;;9.70;;
58581;SDS011;44361;51.476;5.700;2022-12-19T07:49:42;16.05;;;9.40;;
58581;SDS011;44361;51.476;5.700;2022-12-19T07:52:08;19.52;;;9.75;;
58581;SDS011;44361;51.476;5.700;2022-12-19T07:54:34;17.98;;;8.90;;
58581;SDS011;44361;51.476;5.700;2022-12-19T07:57:00;18.40;;;9.40;;
58581;SDS011;44361;51.476;5.700;2022-12-19T07:59:25;16.00;;;8.82;;
58581;SDS011;44361;51.476;5.700;2022-12-19T08:01:51;15.98;;;8.27;;
58581;SDS011;44361;51.476;5.700;2022-12-19T08:04:17;19.45;;;9.52;;
58581;SDS011;44361;51.476;5.700;2022-12-19T08:06:42;16.27;;;9.35;;
58581;SDS011;44361;51.476;5.700;2022-12-19T08:09:09;16.45;;;8.77;;
58581;SDS011;44361;51.476;5.700;2022-12-19T08:11:35;15.65;;;8.88;;
58581;SDS011;44361;51.476;5.700;2022-12-19T08:14:01;14.05;;;8.45;;
58581;SDS011;44361;51.476;5.700;2022-12-19T08:16:26;18.13;;;8.43;;
58581;SDS011;44361;51.476;5.700;2022-12-19T08:18:52;16.95;;;8.73;;
58581;SDS011;44361;51.476;5.700;2022-12-19T08:21:19;15.30;;;8.23;;
58581;SDS011;44361;51.476;5.700;2022-12-19T08:23:45;13.93;;;8.15;;
58581;SDS011;44361;51.476;5.700;2022-12-19T08:26:11;18.50;;;8.30;;
58581;SDS011;44361;51.476;5.700;2022-12-19T08:28:40;14.48;;;7.78;;
58581;SDS011;44361;51.476;5.700;2022-12-19T08:31:07;17.48;;;8.70;;
58581;SDS011;44361;51.476;5.700;2022-12-19T08:33:38;13.07;;;7.82;;
58581;SDS011;44361;51.476;5.700;2022-12-19T08:36:04;14.27;;;7.68;;
58581;SDS011;44361;51.476;5.700;2022-12-19T08:38:31;13.65;;;7.68;;
58581;SDS011;44361;51.476;5.700;2022-12-19T08:40:57;10.63;;;7.35;;
58581;SDS011;44361;51.476;5.700;2022-12-19T08:43:22;17.13;;;8.55;;
58581;SDS011;44361;51.476;5.700;2022-12-19T08:45:49;13.35;;;7.90;;
58581;SDS011;44361;51.476;5.700;2022-12-19T08:48:15;10.00;;;6.68;;
58581;SDS011;44361;51.476;5.700;2022-12-19T08:53:28;12.35;;;6.85;;
58581;SDS011;44361;51.476;5.700;2022-12-19T08:55:58;13.90;;;6.63;;
58581;SDS011;44361;51.476;5.700;2022-12-19T08:58:28;10.88;;;6.53;;
58581;SDS011;44361;51.476;5.700;2022-12-19T09:00:58;10.73;;;6.38;;
58581;SDS011;44361;51.476;5.700;2022-12-19T09:03:29;14.13;;;7.22;;
58581;SDS011;44361;51.476;5.700;2022-12-19T09:08:24;17.50;;;7.35;;
58581;SDS011;44361;51.476;5.700;2022-12-19T09:10:56;12.32;;;6.72;;
58581;SDS011;44361;51.476;5.700;2022-12-19T09:13:22;11.32;;;6.30;;
58581;SDS011;44361;51.476;5.700;2022-12-19T09:15:48;10.80;;;6.57;;
58581;SDS011;44361;51.476;5.700;2022-12-19T09:18:14;12.30;;;6.68;;
58581;SDS011;44361;51.476;5.700;2022-12-19T09:20:39;13.52;;;6.38;;
58581;SDS011;44361;51.476;5.700;2022-12-19T09:23:05;12.75;;;6.15;;
58581;SDS011;44361;51.476;5.700;2022-12-19T09:25:30;10.10;;;6.13;;
58581;SDS011;44361;51.476;5.700;2022-12-19T09:27:56;10.57;;;6.00;;
58581;SDS011;44361;51.476;5.700;2022-12-19T09:30:21;10.07;;;6.07;;
58581;SDS011;44361;51.476;5.700;2022-12-19T09:32:47;10.15;;;5.75;;
58581;SDS011;44361;51.476;5.700;2022-12-19T09:35:12;11.60;;;6.30;;
58581;SDS011;44361;51.476;5.700;2022-12-19T09:37:38;7.85;;;5.50;;
58581;SDS011;44361;51.476;5.700;2022-12-19T09:40:04;12.45;;;5.78;;
58581;SDS011;44361;51.476;5.700;2022-12-19T09:45:17;9.18;;;6.40;;
58581;SDS011;44361;51.476;5.700;2022-12-19T09:47:57;9.30;;;6.25;;
58581;SDS011;44361;51.476;5.700;2022-12-19T09:50:31;10.90;;;6.43;;
58581;SDS011;44361;51.476;5.700;2022-12-19T09:53:13;11.25;;;6.45;;
58581;SDS011;44361;51.476;5.700;2022-12-19T09:55:44;11.57;;;5.35;;
58581;SDS011;44361;51.476;5.700;2022-12-19T09:58:31;9.80;;;6.05;;
58581;SDS011;44361;51.476;5.700;2022-12-19T10:01:09;11.52;;;6.03;;
58581;SDS011;44361;51.476;5.700;2022-12-19T10:03:58;11.00;;;6.18;;
58581;SDS011;44361;51.476;5.700;2022-12-19T10:06:28;8.82;;;5.47;;
58581;SDS011;44361;51.476;5.700;2022-12-19T10:08:56;9.38;;;5.72;;
58581;SDS011;44361;51.476;5.700;2022-12-19T10:14:30;8.23;;;4.82;;
58581;SDS011;44361;51.476;5.700;2022-12-19T10:20:15;10.27;;;5.35;;
58581;SDS011;44361;51.476;5.700;2022-12-19T10:31:19;10.05;;;4.40;;
58581;SDS011;44361;51.476;5.700;2022-12-19T10:34:03;7.85;;;4.75;;
58581;SDS011;44361;51.476;5.700;2022-12-19T10:36:46;5.65;;;4.15;;
58581;SDS011;44361;51.476;5.700;2022-12-19T10:39:22;6.15;;;4.13;;
58581;SDS011;44361;51.476;5.700;2022-12-19T10:41:51;11.50;;;4.85;;
58581;SDS011;44361;51.476;5.700;2022-12-19T10:44:21;10.15;;;4.85;;
58581;SDS011;44361;51.476;5.700;2022-12-19T10:46:50;6.63;;;4.43;;
58581;SDS011;44361;51.476;5.700;2022-12-19T10:51:51;8.30;;;4.10;;
58581;SDS011;44361;51.476;5.700;2022-12-19T10:57:16;9.73;;;4.50;;
58581;SDS011;44361;51.476;5.700;2022-12-19T11:00:03;6.72;;;4.28;;
58581;SDS011;44361;51.476;5.700;2022-12-19T11:05:29;8.52;;;4.53;;
58581;SDS011;44361;51.476;5.700;2022-12-19T11:11:08;7.32;;;4.07;;
58581;SDS011;44361;51.476;5.700;2022-12-19T11:16:02;7.88;;;4.38;;
58581;SDS011;44361;51.476;5.700;2022-12-19T11:18:48;9.38;;;4.45;;
58581;SDS011;44361;51.476;5.700;2022-12-19T11:21:19;5.50;;;3.75;;
58581;SDS011;44361;51.476;5.700;2022-12-19T11:24:01;6.40;;;3.97;;
58581;SDS011;44361;51.476;5.700;2022-12-19T11:29:01;5.93;;;3.88;;
58581;SDS011;44361;51.476;5.700;2022-12-19T11:31:52;5.60;;;3.75;;
58581;SDS011;44361;51.476;5.700;2022-12-19T11:34:26;10.10;;;4.05;;
58581;SDS011;44361;51.476;5.700;2022-12-19T11:36:58;6.40;;;3.95;;
58581;SDS011;44361;51.476;5.700;2022-12-19T11:39:40;7.72;;;4.15;;
58581;SDS011;44361;51.476;5.700;2022-12-19T11:42:11;10.52;;;4.28;;
58581;SDS011;44361;51.476;5.700;2022-12-19T11:45:25;9.07;;;4.18;;
58581;SDS011;44361;51.476;5.700;2022-12-19T11:48:19;5.30;;;3.60;;
58581;SDS011;44361;51.476;5.700;2022-12-19T11:50:53;5.67;;;3.63;;
58581;SDS011;44361;51.476;5.700;2022-12-19T11:53:26;8.70;;;3.67;;
58581;SDS011;44361;51.476;5.700;2022-12-19T11:56:00;6.78;;;3.67;;
58581;SDS011;44361;51.476;5.700;2022-12-19T12:01:22;4.82;;;3.42;;
58581;SDS011;44361;51.476;5.700;2022-12-19T12:12:22;5.80;;;3.25;;
58581;SDS011;44361;51.476;5.700;2022-12-19T12:20:35;7.03;;;3.20;;
58581;SDS011;44361;51.476;5.700;2022-12-19T12:23:24;6.43;;;3.63;;
58581;SDS011;44361;51.476;5.700;2022-12-19T12:25:58;8.30;;;3.35;;
58581;SDS011;44361;51.476;5.700;2022-12-19T12:31:21;6.35;;;2.65;;
58581;SDS011;44361;51.476;5.700;2022-12-19T12:33:59;6.25;;;3.60;;
58581;SDS011;44361;51.476;5.700;2022-12-19T12:44:48;6.57;;;3.22;;
58581;SDS011;44361;51.476;5.700;2022-12-19T12:47:18;4.30;;;2.85;;
58581;SDS011;44361;51.476;5.700;2022-12-19T12:52:40;7.40;;;3.13;;
58581;SDS011;44361;51.476;5.700;2022-12-19T12:55:21;4.65;;;2.95;;
58581;SDS011;44361;51.476;5.700;2022-12-19T13:01:11;5.55;;;2.83;;
58581;SDS011;44361;51.476;5.700;2022-12-19T13:03:41;3.72;;;2.58;;
58581;SDS011;44361;51.476;5.700;2022-12-19T13:09:48;4.45;;;2.33;;
58581;SDS011;44361;51.476;5.700;2022-12-19T13:15:33;4.90;;;2.60;;
58581;SDS011;44361;51.476;5.700;2022-12-19T13:20:53;4.85;;;2.47;;
58581;SDS011;44361;51.476;5.700;2022-12-19T13:23:23;4.07;;;2.25;;
58581;SDS011;44361;51.476;5.700;2022-12-19T13:25:58;6.97;;;2.78;;
58581;SDS011;44361;51.476;5.700;2022-12-19T13:42:01;4.05;;;2.70;;
58581;SDS011;44361;51.476;5.700;2022-12-19T13:44:54;9.65;;;4.93;;
58581;SDS011;44361;51.476;5.700;2022-12-19T13:47:23;7.88;;;3.22;;
58581;SDS011;44361;51.476;5.700;2022-12-19T13:49:53;6.35;;;2.95;;
58581;SDS011;44361;51.476;5.700;2022-12-19T13:52:19;6.95;;;3.13;;
58581;SDS011;44361;51.476;5.700;2022-12-19T13:54:47;8.05;;;2.25;;
58581;SDS011;44361;51.476;5.700;2022-12-19T13:57:22;4.22;;;2.40;;
58581;SDS011;44361;51.476;5.700;2022-12-19T14:00:05;4.82;;;3.00;;
58581;SDS011;44361;51.476;5.700;2022-12-19T14:02:33;10.90;;;2.83;;
58581;SDS011;44361;51.476;5.700;2022-12-19T14:05:03;5.85;;;2.95;;
58581;SDS011;44361;51.476;5.700;2022-12-19T14:07:39;6.82;;;2.78;;
58581;SDS011;44361;51.476;5.700;2022-12-19T14:10:12;6.88;;;2.95;;
58581;SDS011;44361;51.476;5.700;2022-12-19T14:12:44;3.75;;;2.40;;
58581;SDS011;44361;51.476;5.700;2022-12-19T14:18:39;4.85;;;2.50;;
58581;SDS011;44361;51.476;5.700;2022-12-19T14:20:47;6.85;;;2.60;;
58581;SDS011;44361;51.476;5.700;2022-12-19T14:23:14;4.75;;;2.53;;
58581;SDS011;44361;51.476;5.700;2022-12-19T14:25:42;6.43;;;2.47;;
58581;SDS011;44361;51.476;5.700;2022-12-19T14:28:18;3.30;;;2.38;;
58581;SDS011;44361;51.476;5.700;2022-12-19T14:31:10;4.97;;;2.38;;
58581;SDS011;44361;51.476;5.700;2022-12-19T14:33:40;3.78;;;2.50;;
58581;SDS011;44361;51.476;5.700;2022-12-19T14:36:08;4.47;;;2.55;;
58581;SDS011;44361;51.476;5.700;2022-12-19T14:38:34;10.05;;;2.88;;
58581;SDS011;44361;51.476;5.700;2022-12-19T14:41:01;5.60;;;2.33;;
58581;SDS011;44361;51.476;5.700;2022-12-19T14:43:28;5.72;;;2.10;;
58581;SDS011;44361;51.476;5.700;2022-12-19T14:51:35;3.85;;;2.00;;
58581;SDS011;44361;51.476;5.700;2022-12-19T14:56:48;5.15;;;2.85;;
58581;SDS011;44361;51.476;5.700;2022-12-19T14:59:29;4.25;;;2.25;;
58581;SDS011;44361;51.476;5.700;2022-12-19T15:02:17;4.13;;;2.05;;
58581;SDS011;44361;51.476;5.700;2022-12-19T15:05:09;3.85;;;2.33;;
58581;SDS011;44361;51.476;5.700;2022-12-19T15:07:40;6.35;;;2.75;;
58581;SDS011;44361;51.476;5.700;2022-12-19T15:10:18;5.10;;;2.25;;
58581;SDS011;44361;51.476;5.700;2022-12-19T15:21:15;7.63;;;2.30;;
58581;SDS011;44361;51.476;5.700;2022-12-19T15:23:44;4.63;;;2.28;;
58581;SDS011;44361;51.476;5.700;2022-12-19T15:26:11;3.83;;;2.33;;
58581;SDS011;44361;51.476;5.700;2022-12-19T15:28:56;7.47;;;2.40;;
58581;SDS011;44361;51.476;5.700;2022-12-19T15:31:24;5.25;;;2.45;;
58581;SDS011;44361;51.476;5.700;2022-12-19T15:33:58;6.25;;;2.60;;
58581;SDS011;44361;51.476;5.700;2022-12-19T15:36:24;3.95;;;2.25;;
58581;SDS011;44361;51.476;5.700;2022-12-19T15:38:52;8.50;;;2.85;;
58581;SDS011;44361;51.476;5.700;2022-12-19T15:41:22;5.35;;;2.58;;
58581;SDS011;44361;51.476;5.700;2022-12-19T15:43:48;8.90;;;2.50;;
58581;SDS011;44361;51.476;5.700;2022-12-19T15:46:15;7.43;;;2.95;;
58581;SDS011;44361;51.476;5.700;2022-12-19T15:48:44;4.20;;;2.15;;
58581;SDS011;44361;51.476;5.700;2022-12-19T15:51:13;4.90;;;2.30;;
58581;SDS011;44361;51.476;5.700;2022-12-19T15:53:40;4.93;;;2.30;;
58581;SDS011;44361;51.476;5.700;2022-12-19T15:56:12;3.55;;;2.22;;
58581;SDS011;44361;51.476;5.700;2022-12-19T15:58:56;4.53;;;2.70;;
58581;SDS011;44361;51.476;5.700;2022-12-19T16:01:25;5.25;;;2.20;;
58581;SDS011;44361;51.476;5.700;2022-12-19T16:03:51;4.55;;;2.38;;
58581;SDS011;44361;51.476;5.700;2022-12-19T16:06:17;4.13;;;2.35;;
58581;SDS011;44361;51.476;5.700;2022-12-19T16:08:43;6.88;;;2.47;;
58581;SDS011;44361;51.476;5.700;2022-12-19T16:11:15;3.90;;;2.40;;
58581;SDS011;44361;51.476;5.700;2022-12-19T16:13:43;4.82;;;2.20;;
58581;SDS011;44361;51.476;5.700;2022-12-19T16:16:11;5.60;;;2.42;;
58581;SDS011;44361;51.476;5.700;2022-12-19T16:18:37;5.07;;;2.28;;
58581;SDS011;44361;51.476;5.700;2022-12-19T16:21:03;3.45;;;1.88;;
58581;SDS011;44361;51.476;5.700;2022-12-19T16:23:29;7.35;;;2.70;;
58581;SDS011;44361;51.476;5.700;2022-12-19T16:25:54;6.78;;;2.47;;
58581;SDS011;44361;51.476;5.700;2022-12-19T16:28:30;4.28;;;2.80;;
58581;SDS011;44361;51.476;5.700;2022-12-19T16:30:59;5.53;;;2.63;;
58581;SDS011;44361;51.476;5.700;2022-12-19T16:33:36;4.97;;;2.63;;
58581;SDS011;44361;51.476;5.700;2022-12-19T16:36:02;8.43;;;2.95;;
58581;SDS011;44361;51.476;5.700;2022-12-19T16:38:28;6.72;;;3.38;;
58581;SDS011;44361;51.476;5.700;2022-12-19T16:40:53;7.18;;;3.20;;
58581;SDS011;44361;51.476;5.700;2022-12-19T16:43:27;4.35;;;2.42;;
58581;SDS011;44361;51.476;5.700;2022-12-19T16:45:59;6.97;;;2.72;;
58581;SDS011;44361;51.476;5.700;2022-12-19T16:48:26;3.83;;;2.70;;
58581;SDS011;44361;51.476;5.700;2022-12-19T16:50:53;5.40;;;2.35;;
58581;SDS011;44361;51.476;5.700;2022-12-19T16:53:20;9.07;;;2.80;;
58581;SDS011;44361;51.476;5.700;2022-12-19T16:55:49;4.10;;;2.20;;
58581;SDS011;44361;51.476;5.700;2022-12-19T16:58:18;6.18;;;2.38;;
58581;SDS011;44361;51.476;5.700;2022-12-19T17:00:46;5.55;;;2.65;;
58581;SDS011;44361;51.476;5.700;2022-12-19T17:03:31;6.65;;;2.95;;
58581;SDS011;44361;51.476;5.700;2022-12-19T17:06:02;4.43;;;2.63;;
58581;SDS011;44361;51.476;5.700;2022-12-19T17:08:28;4.50;;;2.70;;
58581;SDS011;44361;51.476;5.700;2022-12-19T17:10:53;5.03;;;2.60;;
58581;SDS011;44361;51.476;5.700;2022-12-19T17:13:19;6.35;;;2.72;;
58581;SDS011;44361;51.476;5.700;2022-12-19T17:15:46;5.63;;;2.40;;
58581;SDS011;44361;51.476;5.700;2022-12-19T17:18:13;6.72;;;2.88;;
58581;SDS011;44361;51.476;5.700;2022-12-19T17:20:44;6.30;;;2.47;;
58581;SDS011;44361;51.476;5.700;2022-12-19T17:23:14;4.97;;;2.58;;
58581;SDS011;44361;51.476;5.700;2022-12-19T17:25:42;4.80;;;2.30;;
58581;SDS011;44361;51.476;5.700;2022-12-19T17:28:08;7.82;;;2.60;;
58581;SDS011;44361;51.476;5.700;2022-12-19T17:30:34;4.85;;;2.33;;